METAR Formatted Surface Weather Observation
Issued by NWS

Home | Current Version | Previous Version | Text Only | Print | Product List | Glossary On
Versions: 1 2 3 4 5 6 7 8
000
SAUS45 KPSR 150657
MTRFHU
METAR KFHU 150656Z AUTO 16007KT 10SM CLR 04/M02 A3012 RMK AO2 SLP189
T00391017 401390006 $



USA.gov is the U.S. government's official web portal to all federal, state and local government web resources and services.